createdAt,value
2023-02-13T00:00:33.844Z,100270.31
2023-02-13T00:03:00.966Z,100298.69
2023-02-13T00:05:27.974Z,100299.97
2023-02-13T00:07:54.965Z,100298.19
2023-02-13T00:10:22.247Z,100287.56
2023-02-13T00:12:50.450Z,100280.59
2023-02-13T00:15:17.476Z,100240.97
2023-02-13T00:17:44.461Z,100268.06
2023-02-13T00:20:12.198Z,100207.56
2023-02-13T00:22:39.960Z,100259.25
2023-02-13T00:25:08.180Z,100239.97
2023-02-13T00:27:35.468Z,100257.47
2023-02-13T00:30:03.814Z,100253.81
2023-02-13T00:32:32.879Z,100262.69
2023-02-13T00:34:59.883Z,100238.28
2023-02-13T00:37:27.168Z,100215.00
2023-02-13T00:39:54.317Z,100216.50
2023-02-13T00:42:24.215Z,100230.94
2023-02-13T00:44:51.438Z,100225.50
2023-02-13T00:47:18.764Z,100219.78
2023-02-13T00:49:46.110Z,100196.38
2023-02-13T00:52:13.381Z,100218.03
2023-02-13T00:54:40.559Z,100213.31
2023-02-13T00:57:07.613Z,100219.16
2023-02-13T00:59:35.328Z,100198.03
2023-02-13T01:02:02.357Z,100198.09
2023-02-13T01:04:29.507Z,100183.31
2023-02-13T01:06:57.988Z,100202.66
2023-02-13T01:09:25.707Z,100196.34
2023-02-13T01:11:52.938Z,100194.69
2023-02-13T01:14:20.263Z,100197.72
2023-02-13T01:16:49.506Z,100180.25
2023-02-13T01:19:16.998Z,100134.31
2023-02-13T01:21:44.440Z,100197.16
2023-02-13T01:24:11.720Z,100187.28
2023-02-13T01:26:39.197Z,100163.63
2023-02-13T01:29:06.613Z,100177.75
2023-02-13T01:31:34.166Z,100135.53
2023-02-13T01:34:01.229Z,100121.97
2023-02-13T01:36:28.421Z,100144.44
2023-02-13T01:38:57.915Z,100140.75
2023-02-13T01:41:26.803Z,100145.63
2023-02-13T01:43:57.169Z,100141.34
2023-02-13T01:46:30.272Z,100143.59
2023-02-13T01:49:10.054Z,100140.81
2023-02-13T01:51:38.773Z,100135.75
2023-02-13T01:54:14.873Z,100127.59
2023-02-13T01:56:50.050Z,100121.13
2023-02-13T01:59:35.481Z,100091.00
2023-02-13T02:02:03.255Z,100081.19
2023-02-13T02:04:36.277Z,100090.78
2023-02-13T02:07:14.459Z,100078.72
2023-02-13T02:09:44.231Z,100023.28
2023-02-13T02:12:22.631Z,100092.03
2023-02-13T02:14:50.926Z,100088.94
2023-02-13T02:17:21.719Z,100072.38
2023-02-13T02:20:13.774Z,100084.63
2023-02-13T02:23:14.233Z,100083.09
2023-02-13T02:26:08.993Z,100084.34
2023-02-13T02:29:05.111Z,100085.97
2023-02-13T02:31:56.222Z,100084.34
2023-02-13T02:34:32.652Z,100069.53
2023-02-13T02:37:24.438Z,100068.75
2023-02-13T02:40:11.251Z,100063.94
2023-02-13T02:42:54.644Z,100064.66
2023-02-13T02:45:36.580Z,100058.19
2023-02-13T02:48:30.926Z,100055.19
2023-02-13T02:51:58.907Z,100047.75
2023-02-13T02:54:52.068Z,100015.69
2023-02-13T02:57:47.993Z,100036.34
2023-02-13T03:00:39.832Z,100029.53
2023-02-13T03:03:34.548Z,100009.09
2023-02-13T03:06:14.347Z,99996.59
2023-02-13T03:09:02.490Z,100020.69
2023-02-13T03:11:48.437Z,100012.28
2023-02-13T03:14:20.526Z,100006.94
2023-02-13T03:17:07.846Z,100011.34
2023-02-13T03:20:26.157Z,100023.16
2023-02-13T03:23:05.213Z,100024.50
2023-02-13T03:26:13.349Z,100005.84
2023-02-13T03:29:09.329Z,99997.81
2023-02-13T03:31:49.961Z,99979.59
2023-02-13T03:34:25.208Z,99987.00
2023-02-13T03:37:22.063Z,99986.75
2023-02-13T03:40:05.678Z,99955.13
2023-02-13T03:42:40.084Z,99941.19
2023-02-13T03:45:32.559Z,99959.19
2023-02-13T03:48:09.941Z,99942.53
2023-02-13T03:50:44.558Z,99930.19
2023-02-13T03:53:14.972Z,99932.16
2023-02-13T03:56:05.315Z,99939.66
2023-02-13T03:59:03.835Z,99961.19
2023-02-13T04:01:34.273Z,99954.47
2023-02-13T04:04:28.392Z,99944.75
2023-02-13T04:07:02.777Z,99873.03
2023-02-13T04:09:32.065Z,99939.34
2023-02-13T04:12:22.760Z,99948.28
2023-02-13T04:14:58.048Z,99940.13
2023-02-13T04:17:34.500Z,99930.28
2023-02-13T04:20:01.732Z,99937.56
2023-02-13T04:22:31.504Z,99924.44
2023-02-13T04:24:58.491Z,99911.19
2023-02-13T04:27:28.371Z,99877.88
2023-02-13T04:29:55.385Z,99890.09
2023-02-13T04:32:22.428Z,99882.59
2023-02-13T04:34:49.498Z,99836.97
2023-02-13T04:37:16.465Z,99896.69
2023-02-13T04:39:43.513Z,99888.50
2023-02-13T04:42:10.504Z,99879.41
2023-02-13T04:44:37.541Z,99882.47
2023-02-13T04:47:04.772Z,99873.88
2023-02-13T04:49:31.785Z,99880.69
2023-02-13T04:51:58.795Z,99883.22
2023-02-13T04:54:25.809Z,99875.91
2023-02-13T04:56:52.798Z,99881.13
2023-02-13T04:59:19.772Z,99865.00
2023-02-13T05:01:46.884Z,99852.28
2023-02-13T05:04:16.516Z,99823.19
2023-02-13T05:06:43.601Z,99834.38
2023-02-13T05:09:11.121Z,99835.00
2023-02-13T05:11:38.112Z,99835.19
2023-02-13T05:14:05.170Z,99814.78
2023-02-13T05:16:32.391Z,99824.75
2023-02-13T05:18:59.469Z,99820.78
2023-02-13T05:21:45.214Z,99827.81
2023-02-13T05:24:12.364Z,99823.03
2023-02-13T05:26:39.382Z,99808.84
2023-02-13T05:29:22.847Z,99802.19
2023-02-13T05:31:53.372Z,99828.53
2023-02-13T05:34:22.419Z,99826.06
2023-02-13T05:36:50.433Z,99791.72
2023-02-13T05:39:17.683Z,99804.84
2023-02-13T05:41:45.850Z,99816.22
2023-02-13T05:44:13.565Z,99814.38
2023-02-13T05:46:42.448Z,99804.38
2023-02-13T05:49:11.135Z,99813.97
2023-02-13T05:51:38.166Z,99811.31
2023-02-13T05:54:05.195Z,99816.41
2023-02-13T05:56:32.215Z,99809.97
2023-02-13T05:58:59.574Z,99809.25
2023-02-13T06:01:26.818Z,99807.22
2023-02-13T06:03:53.893Z,99822.09
2023-02-13T06:06:21.578Z,99791.25
2023-02-13T06:08:48.989Z,99650.31
2023-02-13T06:11:16.081Z,99809.97
2023-02-13T06:13:43.128Z,99818.28
2023-02-13T06:16:11.627Z,99800.19
2023-02-13T06:18:39.442Z,99814.75
2023-02-13T06:21:07.466Z,99811.72
2023-02-13T06:23:34.708Z,99760.66
2023-02-13T06:26:03.883Z,99808.63
2023-02-13T06:28:31.411Z,99811.56
2023-02-13T06:30:59.013Z,99784.94
2023-02-13T06:33:26.402Z,99767.03
2023-02-13T06:35:53.936Z,99798.84
2023-02-13T06:38:21.681Z,99789.63
2023-02-13T06:40:49.954Z,99783.75
2023-02-13T06:43:18.048Z,99784.44
2023-02-13T06:45:47.201Z,99768.56
2023-02-13T06:48:14.736Z,99764.88
2023-02-13T06:50:42.990Z,99759.19
2023-02-13T06:53:10.035Z,99758.47
2023-02-13T06:55:39.461Z,99771.19
2023-02-13T06:58:06.783Z,99753.09
2023-02-13T07:00:33.939Z,99765.34
2023-02-13T07:03:06.600Z,99768.03
2023-02-13T07:05:33.977Z,99733.13
2023-02-13T07:08:01.033Z,99729.88
2023-02-13T07:10:28.322Z,99741.81
2023-02-13T07:13:05.373Z,99752.19
2023-02-13T07:15:34.788Z,99749.13
2023-02-13T07:18:02.118Z,99752.75
2023-02-13T07:20:29.813Z,99727.00
2023-02-13T07:23:05.268Z,99736.34
2023-02-13T07:25:32.623Z,99737.94
2023-02-13T07:28:05.481Z,99733.22
2023-02-13T07:30:34.193Z,99702.88
2023-02-13T07:33:02.545Z,99714.09
2023-02-13T07:35:30.062Z,99713.38
2023-02-13T07:37:57.228Z,99711.28
2023-02-13T07:40:24.293Z,99713.16
2023-02-13T07:42:51.321Z,99692.41
2023-02-13T07:45:19.365Z,99713.50
2023-02-13T07:47:46.388Z,99695.56
2023-02-13T07:50:14.019Z,99709.03
2023-02-13T07:52:41.059Z,99712.38
2023-02-13T07:55:08.859Z,99707.47
2023-02-13T07:57:35.891Z,99707.47
2023-02-13T08:00:03.204Z,99700.94
2023-02-13T08:02:39.327Z,99716.88
2023-02-13T08:05:07.169Z,99716.97
2023-02-13T08:07:34.541Z,99705.53
2023-02-13T08:10:31.169Z,99709.16
2023-02-13T08:12:58.362Z,99700.88
2023-02-13T08:15:26.088Z,99703.06
2023-02-13T08:17:53.170Z,99697.44
2023-02-13T08:20:20.619Z,99674.69
2023-02-13T08:22:47.588Z,99684.50
2023-02-13T08:25:14.608Z,99673.78
2023-02-13T08:27:41.850Z,99674.81
2023-02-13T08:30:10.468Z,99659.00
2023-02-13T08:32:53.107Z,99654.00
2023-02-13T08:35:21.482Z,99643.41
2023-02-13T08:37:48.557Z,99650.06
2023-02-13T08:40:15.615Z,99650.06
2023-02-13T08:42:42.601Z,99645.78
2023-02-13T08:45:11.987Z,99637.72
2023-02-13T08:47:40.054Z,99627.06
2023-02-13T08:50:07.647Z,99636.38
2023-02-13T08:52:34.752Z,99616.97
2023-02-13T08:55:03.648Z,99555.06
2023-02-13T08:57:31.495Z,99612.03
2023-02-13T08:59:58.509Z,99616.03
2023-02-13T09:02:25.756Z,99623.84
2023-02-13T09:04:52.797Z,99627.44
2023-02-13T09:07:19.772Z,99619.84
2023-02-13T09:09:46.752Z,99619.53
2023-02-13T09:12:13.915Z,99620.56
2023-02-13T09:14:41.284Z,99613.66
2023-02-13T09:17:08.762Z,99608.03
2023-02-13T09:19:35.752Z,99594.00
2023-02-13T09:22:02.804Z,99593.84
2023-02-13T09:24:29.766Z,99604.53
2023-02-13T09:26:57.016Z,99593.50
2023-02-13T09:29:24.099Z,99599.13
2023-02-13T09:31:51.281Z,99567.03
2023-02-13T09:34:18.431Z,99589.22
2023-02-13T09:36:45.397Z,99576.84
2023-02-13T09:39:12.364Z,99575.16
2023-02-13T09:41:43.069Z,99568.44
2023-02-13T09:44:12.788Z,99563.22
2023-02-13T09:46:42.076Z,99551.94
2023-02-13T09:49:16.031Z,99531.94
2023-02-13T09:51:45.819Z,99537.91
2023-02-13T09:54:16.729Z,99539.31
2023-02-13T09:56:55.042Z,99506.09
2023-02-13T09:59:28.116Z,99512.19
2023-02-13T10:01:58.742Z,99528.19
2023-02-13T10:04:51.945Z,99534.69
2023-02-13T10:07:18.950Z,99530.13
2023-02-13T10:09:51.812Z,99525.88
2023-02-13T10:12:30.831Z,99521.59
2023-02-13T10:15:20.949Z,99515.59
2023-02-13T10:17:56.673Z,99524.16
2023-02-13T10:20:32.834Z,99518.94
2023-02-13T10:23:27.129Z,99496.25
2023-02-13T10:26:20.232Z,99493.19
2023-02-13T10:29:13.060Z,99495.09
2023-02-13T10:31:44.521Z,99511.59
2023-02-13T10:34:16.453Z,99492.84
2023-02-13T10:36:47.800Z,99485.66
2023-02-13T10:39:29.320Z,99486.88
2023-02-13T10:42:06.076Z,99492.00
2023-02-13T10:44:56.746Z,99471.78
2023-02-13T10:47:29.736Z,99420.19
2023-02-13T10:50:02.391Z,99473.34
2023-02-13T10:52:37.006Z,99479.69
2023-02-13T10:55:12.948Z,99473.97
2023-02-13T10:58:05.667Z,99464.75
2023-02-13T11:00:35.589Z,99463.06
2023-02-13T11:03:02.867Z,99468.25
2023-02-13T11:05:38.564Z,99457.41
2023-02-13T11:08:27.456Z,99446.69
2023-02-13T11:10:54.654Z,99447.84
2023-02-13T11:13:27.238Z,99431.72
2023-02-13T11:16:10.642Z,99438.41
2023-02-13T11:18:41.962Z,99422.72
2023-02-13T11:21:34.863Z,99430.59
2023-02-13T11:24:02.541Z,99454.84
2023-02-13T11:26:35.756Z,99393.22
2023-02-13T11:29:29.238Z,99437.47
2023-02-13T11:32:02.449Z,99441.97
2023-02-13T11:34:32.033Z,99438.16
2023-02-13T11:37:20.940Z,99434.06
2023-02-13T11:39:51.457Z,99421.81
2023-02-13T11:42:37.237Z,99422.13
2023-02-13T11:45:21.907Z,99403.25
2023-02-13T11:47:49.679Z,99424.81
2023-02-13T11:50:22.647Z,99423.13
2023-02-13T11:53:00.726Z,99391.00
2023-02-13T11:55:40.562Z,99334.72
2023-02-13T11:58:10.662Z,99388.41
2023-02-13T12:00:41.773Z,99386.78
2023-02-13T12:03:31.435Z,99324.09
2023-02-13T12:06:04.254Z,99388.16
2023-02-13T12:08:33.738Z,99385.88
2023-02-13T12:11:03.527Z,99336.38
2023-02-13T12:13:37.665Z,99352.31
2023-02-13T12:16:18.999Z,99346.22
2023-02-13T12:18:51.300Z,99360.75
2023-02-13T12:21:38.481Z,99341.66
2023-02-13T12:24:29.944Z,99366.25
2023-02-13T12:27:28.517Z,99363.13
2023-02-13T12:30:02.219Z,99367.94
2023-02-13T12:33:10.582Z,99363.69
2023-02-13T12:35:59.207Z,99352.25
2023-02-13T12:38:40.068Z,99352.81
2023-02-13T12:41:12.819Z,99361.44
2023-02-13T12:43:48.721Z,99358.81
2023-02-13T12:46:35.068Z,99351.28
2023-02-13T12:49:14.792Z,99335.78
2023-02-13T12:51:47.900Z,99340.94
2023-02-13T12:54:24.087Z,99336.78
2023-02-13T12:57:20.118Z,99328.22
2023-02-13T13:00:24.851Z,99321.44
2023-02-13T13:03:11.414Z,99306.69
2023-02-13T13:06:11.726Z,99313.84
2023-02-13T13:08:42.418Z,99299.31
2023-02-13T13:11:29.626Z,99305.50
2023-02-13T13:14:14.840Z,99305.41
2023-02-13T13:17:00.481Z,99306.53
2023-02-13T13:19:45.918Z,99302.13
2023-02-13T13:22:27.888Z,99300.47
2023-02-13T13:25:07.277Z,99303.22
2023-02-13T13:27:44.392Z,99305.75
2023-02-13T13:30:14.373Z,99300.84
2023-02-13T13:32:44.130Z,99255.84
2023-02-13T13:35:16.313Z,99291.72
2023-02-13T13:38:02.772Z,99301.25
2023-02-13T13:40:46.104Z,99293.47
2023-02-13T13:43:41.215Z,99298.06
2023-02-13T13:46:10.957Z,99269.47
2023-02-13T13:49:07.225Z,99284.44
2023-02-13T13:51:34.435Z,99266.38
2023-02-13T13:54:01.629Z,99276.81
2023-02-13T13:56:53.448Z,99273.53
2023-02-13T13:59:51.704Z,99266.91
2023-02-13T14:02:18.867Z,99272.78
2023-02-13T14:05:21.850Z,99278.97
2023-02-13T14:07:54.773Z,99275.34
2023-02-13T14:10:21.788Z,99273.72
2023-02-13T14:12:51.022Z,99262.56
2023-02-13T14:15:39.873Z,99262.59
2023-02-13T14:18:12.021Z,99257.25
2023-02-13T14:20:50.805Z,99256.25
2023-02-13T14:23:33.223Z,99252.75
2023-02-13T14:26:15.430Z,99245.78
2023-02-13T14:28:51.315Z,99236.78
2023-02-13T14:31:30.735Z,99236.59
2023-02-13T14:34:01.213Z,99243.78
2023-02-13T14:36:34.253Z,99230.63
2023-02-13T14:39:16.746Z,99245.41
2023-02-13T14:41:55.962Z,99239.97
2023-02-13T14:44:33.382Z,99235.00
2023-02-13T14:47:13.645Z,99209.53
2023-02-13T14:49:42.724Z,99226.31
2023-02-13T14:52:38.912Z,99223.88
2023-02-13T14:55:08.800Z,99216.06
2023-02-13T14:58:05.712Z,99210.09
2023-02-13T15:00:43.510Z,99210.84
2023-02-13T15:03:28.754Z,99193.31
2023-02-13T15:06:01.436Z,99193.50
2023-02-13T15:08:40.075Z,99187.56
2023-02-13T15:11:27.162Z,99194.72
2023-02-13T15:13:54.148Z,99153.22
2023-02-13T15:16:21.292Z,99159.28
2023-02-13T15:18:52.657Z,99134.25
2023-02-13T15:21:22.970Z,99157.31
2023-02-13T15:23:55.552Z,99147.91
2023-02-13T15:26:30.716Z,99097.56
2023-02-13T15:29:17.463Z,99143.94
2023-02-13T15:31:52.650Z,99078.34
2023-02-13T15:34:28.931Z,99125.66
2023-02-13T15:36:56.875Z,99117.06
2023-02-13T15:39:27.234Z,99136.25
2023-02-13T15:42:00.164Z,99121.88
2023-02-13T15:44:32.976Z,99112.44
2023-02-13T15:47:08.565Z,99109.56
2023-02-13T15:49:42.692Z,99099.19
2023-02-13T15:52:18.496Z,99094.06
2023-02-13T15:54:56.145Z,99108.91
2023-02-13T15:57:25.092Z,99104.38
2023-02-13T15:59:52.591Z,99096.75
2023-02-13T16:02:26.236Z,99077.47
2023-02-13T16:04:56.017Z,99081.94
2023-02-13T16:07:23.086Z,99094.84
2023-02-13T16:09:50.104Z,99085.25
2023-02-13T16:12:24.382Z,99081.25
2023-02-13T16:14:54.238Z,99070.88
2023-02-13T16:17:32.924Z,99080.41
2023-02-13T16:20:12.240Z,99058.78
2023-02-13T16:22:41.082Z,99052.72
2023-02-13T16:25:10.677Z,99055.63
2023-02-13T16:27:53.263Z,99056.38
2023-02-13T16:30:33.585Z,99046.16
2023-02-13T16:33:13.273Z,99042.00
2023-02-13T16:35:49.362Z,99020.19
2023-02-13T16:38:35.325Z,99030.16
2023-02-13T16:41:30.838Z,99031.97
2023-02-13T16:43:59.092Z,99026.25
2023-02-13T16:46:39.908Z,99021.19
2023-02-13T16:49:10.128Z,99014.31
2023-02-13T16:52:12.539Z,98954.59
2023-02-13T16:54:57.179Z,99001.69
2023-02-13T16:57:34.470Z,99002.47
2023-02-13T17:00:19.824Z,98987.75
2023-02-13T17:02:48.271Z,98922.69
2023-02-13T17:05:22.350Z,98933.91
2023-02-13T17:07:51.943Z,98974.75
2023-02-13T17:10:34.154Z,98988.19
2023-02-13T17:13:14.712Z,98977.13
2023-02-13T17:15:46.752Z,98983.16
2023-02-13T17:18:14.232Z,98986.50
2023-02-13T17:20:44.184Z,98980.66
2023-02-13T17:23:17.843Z,98968.75
2023-02-13T17:25:47.595Z,98965.44
2023-02-13T17:28:15.084Z,98968.09
2023-02-13T17:30:43.089Z,98924.72
2023-02-13T17:33:23.188Z,98957.03
2023-02-13T17:35:50.579Z,98929.38
2023-02-13T17:38:17.987Z,98920.72
2023-02-13T17:40:45.764Z,98932.19
2023-02-13T17:43:15.335Z,98882.38
2023-02-13T17:45:42.856Z,98927.03
2023-02-13T17:48:10.059Z,98843.59
2023-02-13T17:50:38.309Z,98923.84
2023-02-13T17:53:14.971Z,98918.72
2023-02-13T17:55:42.085Z,98908.28
2023-02-13T17:58:09.109Z,98888.22
2023-02-13T18:00:36.164Z,98890.28
2023-02-13T18:03:03.494Z,98898.56
2023-02-13T18:05:32.572Z,98905.44
2023-02-13T18:08:02.822Z,98907.22
2023-02-13T18:10:33.236Z,98838.63
2023-02-13T18:13:04.531Z,98883.03
2023-02-13T18:15:33.754Z,98891.81
2023-02-13T18:18:00.881Z,98886.63
2023-02-13T18:20:27.986Z,98880.66
2023-02-13T18:22:55.011Z,98879.75
2023-02-13T18:25:23.743Z,98878.78
2023-02-13T18:27:51.198Z,98858.19
2023-02-13T18:30:20.257Z,98863.44
2023-02-13T18:32:53.038Z,98858.31
2023-02-13T18:35:20.521Z,98855.59
2023-02-13T18:37:47.575Z,98840.34
2023-02-13T18:40:17.942Z,98838.53
2023-02-13T18:42:45.355Z,98836.97
2023-02-13T18:45:12.866Z,98832.75
2023-02-13T18:47:40.222Z,98812.84
2023-02-13T18:50:08.348Z,98812.88
2023-02-13T18:52:35.472Z,98803.31
2023-02-13T18:55:02.691Z,98730.41
2023-02-13T18:57:30.756Z,98813.88
2023-02-13T18:59:57.746Z,98803.50
2023-02-13T19:02:24.988Z,98801.81
2023-02-13T19:04:52.061Z,98773.09
2023-02-13T19:07:19.076Z,98799.22
2023-02-13T19:09:46.068Z,98799.31
2023-02-13T19:12:13.156Z,98788.94
2023-02-13T19:14:41.144Z,98788.16
2023-02-13T19:17:08.738Z,98788.97
2023-02-13T19:19:35.991Z,98779.44
2023-02-13T19:22:03.977Z,98773.47
2023-02-13T19:24:31.108Z,98771.06
2023-02-13T19:26:58.204Z,98758.28
2023-02-13T19:29:25.218Z,98758.97
2023-02-13T19:31:52.311Z,98761.72
2023-02-13T19:34:19.352Z,98741.88
2023-02-13T19:36:46.390Z,98747.16
2023-02-13T19:39:13.542Z,98748.88
2023-02-13T19:41:44.255Z,98754.03
2023-02-13T19:44:11.468Z,98735.88
2023-02-13T19:46:38.798Z,98724.78
2023-02-13T19:49:06.202Z,98733.56
2023-02-13T19:51:35.177Z,98737.06
2023-02-13T19:54:05.428Z,98732.69
2023-02-13T19:56:34.480Z,98709.91
2023-02-13T19:59:01.689Z,98745.88
2023-02-13T20:01:29.917Z,98750.97
2023-02-13T20:03:57.712Z,98734.34
2023-02-13T20:06:37.028Z,98748.34
2023-02-13T20:09:12.176Z,98749.25
2023-02-13T20:11:43.641Z,98740.53
2023-02-13T20:14:15.064Z,98750.16
2023-02-13T20:16:45.706Z,98723.28
2023-02-13T20:19:14.175Z,98714.72
2023-02-13T20:21:42.564Z,98737.25
2023-02-13T20:24:11.138Z,98748.47
2023-02-13T20:26:39.396Z,98739.09
2023-02-13T20:29:06.573Z,98742.63
2023-02-13T20:31:34.562Z,98743.41
2023-02-13T20:34:02.089Z,98741.84
2023-02-13T20:36:31.173Z,98728.75
2023-02-13T20:39:01.081Z,98740.84
2023-02-13T20:41:31.017Z,98747.84
2023-02-13T20:44:07.581Z,98747.84
2023-02-13T20:46:37.577Z,98741.78
2023-02-13T20:49:05.284Z,98723.50
2023-02-13T20:51:32.456Z,98749.53
2023-02-13T20:54:00.480Z,98733.91
2023-02-13T20:56:28.589Z,98747.91
2023-02-13T20:58:58.116Z,98746.03
2023-02-13T21:01:32.480Z,98719.22
2023-02-13T21:04:00.218Z,98746.97
2023-02-13T21:06:33.371Z,98757.25
2023-02-13T21:09:01.266Z,98707.75
2023-02-13T21:11:29.552Z,98747.56
2023-02-13T21:13:58.014Z,98764.00
2023-02-13T21:16:31.088Z,98757.00
2023-02-13T21:19:00.126Z,98765.53
2023-02-13T21:21:31.523Z,98763.97
2023-02-13T21:24:01.806Z,98763.13
2023-02-13T21:26:30.040Z,98762.97
2023-02-13T21:28:58.088Z,98763.09
2023-02-13T21:31:31.502Z,98761.44
2023-02-13T21:34:07.327Z,98752.78
2023-02-13T21:36:35.889Z,98746.66
2023-02-13T21:39:05.844Z,98764.00
2023-02-13T21:41:33.161Z,98765.66
2023-02-13T21:44:00.415Z,98759.59
2023-02-13T21:46:32.691Z,98759.56
2023-02-13T21:49:05.316Z,98762.06
2023-02-13T21:51:34.154Z,98749.22
2023-02-13T21:54:01.460Z,98760.41
2023-02-13T21:56:31.537Z,98691.00
2023-02-13T21:58:59.269Z,98767.34
2023-02-13T22:01:32.402Z,98738.69
2023-02-13T22:04:02.258Z,98754.56
2023-02-13T22:06:31.092Z,98761.44
2023-02-13T22:09:11.011Z,98752.88
2023-02-13T22:11:39.111Z,98767.38
2023-02-13T22:14:08.248Z,98751.88
2023-02-13T22:16:37.572Z,98747.56
2023-02-13T22:19:06.381Z,98704.03
2023-02-13T22:21:34.935Z,98762.28
2023-02-13T22:24:02.249Z,98767.38
2023-02-13T22:26:35.030Z,98772.59
2023-02-13T22:29:07.788Z,98762.84
2023-02-13T22:31:35.416Z,98787.72
2023-02-13T22:34:05.255Z,98780.00
2023-02-13T22:36:40.407Z,98786.84
2023-02-13T22:39:09.824Z,98781.56
2023-02-13T22:41:36.862Z,98780.00
2023-02-13T22:44:04.048Z,98796.19
2023-02-13T22:46:33.246Z,98785.94
2023-02-13T22:49:00.544Z,98766.66
2023-02-13T22:51:36.230Z,98797.06
2023-02-13T22:54:03.854Z,98783.94
2023-02-13T22:56:32.250Z,98791.72
2023-02-13T22:58:59.755Z,98791.03
2023-02-13T23:01:28.106Z,98755.34
2023-02-13T23:03:56.271Z,98777.91
2023-02-13T23:06:23.885Z,98792.69
2023-02-13T23:08:53.635Z,98733.41
2023-02-13T23:11:42.637Z,98796.94
2023-02-13T23:14:10.440Z,98796.16
2023-02-13T23:16:57.943Z,98803.91
2023-02-13T23:19:25.628Z,98783.06
2023-02-13T23:21:52.590Z,98807.28
2023-02-13T23:24:19.587Z,98808.16
2023-02-13T23:26:46.736Z,98798.31
2023-02-13T23:29:13.807Z,98807.09
2023-02-13T23:31:40.899Z,98798.19
2023-02-13T23:34:08.047Z,98807.06
2023-02-13T23:36:35.159Z,98807.88
2023-02-13T23:39:02.406Z,98767.81
2023-02-13T23:41:29.495Z,98786.88
2023-02-13T23:43:56.540Z,98800.81
2023-02-13T23:46:23.683Z,98819.84
2023-02-13T23:48:50.722Z,98798.28
2023-02-13T23:51:18.645Z,98825.84
2023-02-13T23:53:45.691Z,98812.06
2023-02-13T23:56:12.674Z,98818.00
2023-02-13T23:58:39.710Z,98824.78
